»·PEaware :: SWA1763 KPHX-KABQ

SWA1763 :: KPHX-KABQ

FLIGHT INFORMATION

Flight Status: Arrived
Operator:
Southwest Airlines
More flights by this operator :: More flights under this callsign
Pilot: Anonymous 34646 (34646)
Aircraft: BOEING 737-700
(B737)
More flights by this aircraft type
Origin: KPHX Phoenix Sky Harbor Intl
United States
Destination: KABQ Albuquerque Intl Sunport
United States
More flights between these airports :: More routes between these airports
Route: FORPE1 FORPE CABNO KRKEE3
File this flight plan on PilotEdge
Remarks: RMK / SIMBRIEF
Altitude:
(Current/Filed)
37,000ft
Speed:
(Current/Filed)
451kts
Departed: 30-Apr-21 09:15 PM
Arrived: 30-Apr-21 10:03 PM
Distance/Time
Traveled:
285nm/0:47
Distance/Time
To Go:
Arrived

Flight Plot

Page will automatically refresh every two minutes.

Flight plan parsing failed; only flown route is shown


Map Options




Map Legend


Flown Route
Filed Route
Departure Airport
Arrival Airport
Navaid (VOR, NDB)
Fix

Horizontal Profiles

Position Reports

Time Latitude Longitude Heading Altitude Ground
Speed
30-Apr-21 20:49 33.433658 -111.994945 87 1143ft 0kts
30-Apr-21 20:50 33.433658 -111.994945 87 1143ft 0kts
30-Apr-21 20:51 33.433658 -111.994945 87 1143ft 0kts
30-Apr-21 20:52 33.433658 -111.994945 87 1143ft 0kts
30-Apr-21 20:53 33.433658 -111.994945 87 1143ft 0kts
30-Apr-21 20:54 33.433658 -111.994945 87 1143ft 0kts
30-Apr-21 20:55 33.433658 -111.994945 87 1143ft 0kts
30-Apr-21 20:56 33.433658 -111.994945 87 1143ft 0kts
30-Apr-21 20:57 33.433658 -111.994945 87 1143ft 0kts
30-Apr-21 20:58 33.433658 -111.994945 87 1143ft 0kts
30-Apr-21 20:59 33.433658 -111.994945 87 1143ft 0kts
30-Apr-21 21:00 33.433657 -111.995469 92 1143ft 2kts
30-Apr-21 21:01 33.433668 -111.995673 94 1143ft 0kts
30-Apr-21 21:02 33.433668 -111.995673 94 1143ft 0kts
30-Apr-21 21:03 33.433668 -111.995673 94 1143ft 0kts
30-Apr-21 21:04 33.433668 -111.995673 94 1143ft 0kts
30-Apr-21 21:05 33.433668 -111.995673 94 1143ft 0kts
30-Apr-21 21:06 33.432665 -111.995621 197 1143ft 7kts
30-Apr-21 21:07 33.432116 -111.999317 270 1143ft 15kts
30-Apr-21 21:08 33.432119 -112.004146 270 1143ft 13kts
30-Apr-21 21:09 33.432120 -112.009628 269 1143ft 21kts
30-Apr-21 21:10 33.432114 -112.016296 269 1143ft 18kts
30-Apr-21 21:11 33.432116 -112.022102 269 1143ft 22kts
30-Apr-21 21:12 33.432071 -112.026786 232 1143ft 0kts
30-Apr-21 21:13 33.431072 -112.026254 89 1143ft 13kts
30-Apr-21 21:14 33.430998 -111.997948 90 1289ft 159kts
30-Apr-21 21:15 33.433054 -111.940601 87 3040ft 204kts
30-Apr-21 21:16 33.440153 -111.867409 70 5281ft 246kts
30-Apr-21 21:17 33.473894 -111.784122 63 7810ft 294kts
30-Apr-21 21:18 33.511328 -111.694416 62 11431ft 313kts
30-Apr-21 21:19 33.553786 -111.592533 61 14004ft 357kts
30-Apr-21 21:20 33.598905 -111.484029 62 17304ft 369kts
30-Apr-21 21:22 33.644999 -111.371694 61 20207ft 384kts
30-Apr-21 21:23 33.692477 -111.254189 64 21112ft 390kts
30-Apr-21 21:24 33.729876 -111.132032 67 21147ft 393kts
30-Apr-21 21:25 33.767045 -111.008983 67 22363ft 394kts
30-Apr-21 21:26 33.805163 -110.883397 66 24742ft 405kts
30-Apr-21 21:27 33.845041 -110.754480 66 26664ft 419kts
30-Apr-21 21:28 33.885869 -110.620540 66 28321ft 432kts
30-Apr-21 21:29 33.927486 -110.483037 65 29751ft 444kts
30-Apr-21 21:30 33.970024 -110.341786 65 31057ft 453kts
30-Apr-21 21:31 34.012864 -110.198824 65 32632ft 453kts
30-Apr-21 21:32 34.055559 -110.055638 65 34081ft 454kts
30-Apr-21 21:33 34.097987 -109.912655 65 35520ft 451kts
30-Apr-21 21:34 34.139861 -109.770840 65 36814ft 448kts
30-Apr-21 21:35 34.181705 -109.628433 65 37293ft 451kts
30-Apr-21 21:36 34.223119 -109.486806 65 37280ft 445kts
30-Apr-21 21:37 34.264212 -109.345567 65 37261ft 444kts
30-Apr-21 21:38 34.304859 -109.205191 65 37263ft 441kts
30-Apr-21 21:39 34.345165 -109.065300 65 37264ft 439kts
30-Apr-21 21:40 34.385141 -108.925868 66 37268ft 437kts
30-Apr-21 21:41 34.424997 -108.787248 66 37273ft 435kts
30-Apr-21 21:42 34.464015 -108.649243 66 37284ft 433kts
30-Apr-21 21:43 34.502537 -108.511146 68 37290ft 433kts
30-Apr-21 21:44 34.527913 -108.367299 73 34867ft 438kts
30-Apr-21 21:45 34.551648 -108.225678 73 32680ft 420kts
30-Apr-21 21:46 34.575251 -108.089937 73 30597ft 403kts
30-Apr-21 21:46 34.593620 -107.980467 74 28862ft 392kts
30-Apr-21 21:47 34.614896 -107.852621 74 26746ft 382kts
30-Apr-21 21:49 34.661035 -107.717538 60 24450ft 360kts
30-Apr-21 21:50 34.706115 -107.613223 60 21952ft 343kts
30-Apr-21 21:51 34.749898 -107.511785 60 20341ft 332kts
30-Apr-21 21:51 34.784922 -107.429727 60 18609ft 327kts
30-Apr-21 21:52 34.826816 -107.331357 60 16571ft 323kts
30-Apr-21 21:53 34.867253 -107.235101 62 14641ft 318kts
30-Apr-21 21:55 34.911921 -107.127779 61 13303ft 297kts
30-Apr-21 21:56 34.949926 -107.038623 62 11529ft 295kts
30-Apr-21 21:56 34.981333 -106.964625 62 10064ft 294kts
30-Apr-21 21:57 35.016404 -106.874953 66 8272ft 287kts
30-Apr-21 21:58 35.044683 -106.795037 82 8005ft 239kts
30-Apr-21 21:59 35.044959 -106.715694 92 6841ft 214kts
30-Apr-21 22:00 35.044543 -106.651700 93 5873ft 161kts
30-Apr-21 22:01 35.044195 -106.604231 89 5320ft 80kts
30-Apr-21 22:02 35.045681 -106.600004 291 5320ft 11kts

Navigation Log

Ident Type
Flight plan parsing failed, navigation log unavailable